Latest Coastal Weather Observations for Double Island Point

IDQ60701

Issued at 9:52 pm EST Saturday 27 August 2016 (issued every 10 minutes, with the page automatically refreshed every 10 minutes)

About coastal observations | Map of coastal stations | Coastal observations for QLD | Marine services | Other Formats
Station Details ID: 040068 Name: DOUBLE ISLAND POINT LIGHTHOUSE Lat: -25.93 Lon: 153.19 Height: 95.64 m
Data from the previous 72 hours. | See also: Recent months at Double Island Point
Date/Time
EST
Temp
°C
Wind Pressure Rain since
9am
mm
Weather Cloud Vis
km
Sea
Height
m
Swell
Dir  Spd
kts
Gust
kts
hPa Trend Height
m
Period
s
Dir
27/09:30pm - SSW 10 11 1021.1 - 0.0 - - - - - - -
27/09:00pm - SW 8 10 1020.9 - 0.0 - - - - - - -
27/08:30pm - SSW 7 8 1020.9 - 0.0 - - - - - - -
27/08:00pm - S 9 10 1020.7 - 0.0 - - - - - - -
27/07:30pm - S 7 9 1020.5 - 0.0 - - - - - - -
27/07:00pm - SE 8 11 1020.0 - 0.0 - - - - - - -
27/06:30pm - SE 9 11 1019.7 - 0.0 - - - - - - -
27/06:00pm - SE 9 11 1019.2 - 0.0 - - - - - - -
27/05:30pm - SE 7 9 1018.9 - 0.0 - - - - - - -
27/05:00pm - SE 7 10 1018.5 - 0.0 - - - - - - -
27/04:30pm - ESE 7 9 1018.2 - 0.0 - - - - - - -
27/04:00pm - ESE 7 10 1018.0 - 0.0 - - - - - - -
27/03:30pm - SE 8 10 1017.7 - 0.0 - - - - - - -
27/03:00pm - SE 9 11 1017.8 - 0.0 - - - - - - -
27/02:30pm - SE 10 13 1017.8 - 0.0 - - - - - - -
27/02:00pm - SE 10 12 1017.8 - 0.0 - - - - - - -
27/01:30pm - SSE 13 17 1018.0 - 0.0 - - - - - - -
27/01:00pm - SSE 13 17 1018.5 - 0.0 - - - - - - -
27/12:30pm - S 14 18 1018.8 - 0.0 - - - - - - -
27/12:00pm - S 14 18 1019.1 - 0.0 - - - - - - -
27/11:30am - S 13 18 1019.5 - 0.0 - - - - - - -
27/11:00am - S 15 21 1019.8 - 0.0 - - - - - - -
27/10:30am - S 15 21 1019.8 - 0.0 - - - - - - -
27/10:00am - S 13 17 1019.9 - 0.0 - - - - - - -
27/09:30am - S 12 16 1019.8 - 0.0 - - - - - - -
27/09:00am - SW 7 12 1019.9 - 0.0 - - - - - - -
27/08:30am - SSW 8 11 1019.9 - 0.0 - - - - - - -
27/08:00am - SSW 11 15 1019.4 - 0.0 - - - - - - -
27/07:30am - SSW 14 16 1019.1 - 0.0 - - - - - - -
27/07:00am - SSW 13 16 1018.8 - 0.0 - - - - - - -
27/06:30am - SSW 15 17 1018.5 - 0.0 - - - - - - -
27/06:00am - SSW 16 19 1018.5 - 0.0 - - - - - - -
27/05:30am - SSW 16 20 1018.1 - 0.0 - - - - - - -
27/05:00am - SW 18 23 1017.8 - 0.0 - - - - - - -
27/04:30am - SW 16 21 1017.6 - 0.0 - - - - - - -
27/04:00am - WSW 18 22 1017.3 - 0.0 - - - - - - -
27/03:30am - WSW 18 21 1016.7 - 0.0 - - - - - - -
27/03:00am - WSW 18 24 1017.1 - 0.0 - - - - - - -
27/02:30am - W 19 23 1017.1 - 0.0 - - - - - - -
27/02:00am - WSW 17 24 1017.2 - 0.0 - - - - - - -
27/01:30am - SW 19 26 1017.2 - 0.0 - - - - - - -
27/01:00am - WSW 19 24 1017.4 - 0.0 - - - - - - -
27/12:30am - SW 19 29 1017.5 - 0.0 - - - - - - -
27/12:26am - SW 19 29 1017.6 - 0.0 - - - - - - -
27/12:00am - SW 18 23 1017.7 - 0.0 - - - - - - -
 
Date/Time
EST
Temp
°C
Wind Pressure Rain since
9am
mm
Weather Cloud Vis
km
Sea
Height
m
Swell
Dir  Spd
kts
Gust
kts
hPa Trend Height
m
Period
s
Dir
26/11:30pm - SW 18 23 1017.6 - 0.0 - - - - - - -
26/11:00pm - SW 18 24 1017.6 - 0.0 - - - - - - -
26/10:30pm - SW 17 22 1017.6 - 0.0 - - - - - - -
26/10:00pm - SW 19 24 1017.4 - 0.0 - - - - - - -
26/09:30pm - SW 21 28 1017.0 - 0.0 - - - - - - -
26/09:05pm - WSW 15 27 1017.1 - 0.0 - - - - - - -
26/09:00pm - WSW 13 21 1017.1 - 0.0 - - - - - - -
26/08:30pm - WNW 10 14 1016.9 - 0.0 - - - - - - -
26/08:00pm - NW 8 10 1016.7 - 0.0 - - - - - - -
26/07:30pm - NNW 9 11 1016.5 - 0.0 - - - - - - -
26/07:00pm - NNW 7 9 1016.3 - 0.0 - - - - - - -
26/06:30pm - NNW 5 7 1015.9 - 0.0 - - - - - - -
26/06:00pm - NE 3 5 1015.4 - 0.0 - - - - - - -
26/05:30pm - E 4 6 1015.3 - 0.0 - - - - - - -
26/05:00pm - ENE 5 7 1015.0 - 0.0 - - - - - - -
26/04:30pm - NE 5 7 1014.8 - 0.0 - - - - - - -
26/04:00pm - NE 5 7 1014.7 - 0.0 - - - - - - -
26/03:30pm - NNE 5 9 1014.5 - 0.0 - - - - - - -
26/03:00pm - NE 6 11 1014.1 - 0.0 - - - - - - -
26/02:30pm - ENE 9 12 1013.9 - 0.0 - - - - - - -
26/02:00pm - ENE 8 10 1014.4 - 0.0 - - - - - - -
26/01:30pm - E 8 10 1014.8 - 0.0 - - - - - - -
26/01:00pm - ESE 10 12 1015.1 - 0.0 - - - - - - -
26/12:30pm - SE 10 13 1015.3 - 0.0 - - - - - - -
26/12:00pm - SE 10 12 1015.7 - 0.0 - - - - - - -
26/11:30am - SE 9 12 1016.3 - 0.0 - - - - - - -
26/11:00am - SE 8 10 1016.6 - 0.0 - - - - - - -
26/10:30am - SSE 9 12 1016.7 - 0.0 - - - - - - -
26/10:00am - S 10 13 1016.9 - 0.0 - - - - - - -
26/09:30am - S 9 12 1017.2 - 0.0 - - - - - - -
26/09:00am - S 11 13 1017.3 - 0.0 - - - - - - -
26/08:30am - S 12 16 1017.4 - 0.0 - - - - - - -
26/08:00am - S 11 14 1017.3 - 0.0 - - - - - - -
26/07:30am - S 11 16 1017.2 - 0.0 - - - - - - -
26/07:00am - S 13 15 1016.8 - 0.0 - - - - - - -
26/06:30am - S 14 15 1016.4 - 0.0 - - - - - - -
26/06:00am - S 14 16 1016.2 - 0.0 - - - - - - -
26/05:30am - S 13 16 1015.6 - 0.0 - - - - - - -
26/05:00am - SSW 12 15 1015.3 - 0.0 - - - - - - -
26/04:30am - SSW 12 16 1015.2 - 0.0 - - - - - - -
26/04:00am - SW 14 19 1015.1 - 0.0 - - - - - - -
26/03:30am - SW 15 18 1014.8 - 0.0 - - - - - - -
26/03:00am - SW 15 18 1014.9 - 0.0 - - - - - - -
26/02:30am - WSW 16 19 1015.0 - 0.0 - - - - - - -
26/02:00am - SW 12 19 1015.1 - 0.0 - - - - - - -
26/01:30am - SW 14 20 1014.9 - 0.0 - - - - - - -
26/01:00am - SW 17 22 1015.0 - 0.0 - - - - - - -
26/12:30am - SSW 19 26 1015.1 - 0.0 - - - - - - -
26/12:00am - SW 19 27 1014.9 - 0.0 - - - - - - -
 
Date/Time
EST
Temp
°C
Wind Pressure Rain since
9am
mm
Weather Cloud Vis
km
Sea
Height
m
Swell
Dir  Spd
kts
Gust
kts
hPa Trend Height
m
Period
s
Dir
25/11:30pm - SSW 22 29 1014.8 - 0.0 - - - - - - -
25/11:00pm - SSW 24 32 1014.9 - 0.0 - - - - - - -
25/10:30pm - SSW 21 26 1014.9 - 0.0 - - - - - - -
25/10:00pm - SSW 17 24 1015.2 - 0.0 - - - - - - -
25/09:30pm - SSW 20 25 1015.3 - 0.0 - - - - - - -
25/09:00pm - SSW 18 23 1015.4 - 0.0 - - - - - - -
25/08:30pm - SSW 17 23 1015.2 - 0.0 - - - - - - -
25/08:00pm - SSW 15 20 1014.9 - 0.0 - - - - - - -
25/07:30pm - SW 13 19 1014.5 - 0.0 - - - - - - -
25/07:00pm - SSW 13 16 1013.7 - 0.0 - - - - - - -
25/06:30pm - SSW 9 11 1012.9 - 0.0 - - - - - - -
25/06:00pm - S 11 13 1012.5 - 0.0 - - - - - - -
25/05:30pm - SSE 13 16 1011.9 - 0.0 - - - - - - -
25/05:00pm - SSW 13 18 1011.2 - 0.0 - - - - - - -
25/04:30pm - SW 12 17 1011.1 - 0.0 - - - - - - -
25/04:00pm 20.5 WSW 10 16 1011.0 - 0.0 - - - - - - -
25/03:30pm 21.7 WNW 10 17 1010.7 - 0.0 - - - - - - -
25/03:00pm 22.1 W 11 16 1010.2 - 0.0 - - - - - - -
25/02:30pm 22.5 WSW 12 17 1010.3 - 0.0 - - - - - - -
25/02:00pm 23.2 WNW 10 17 1010.4 - 0.0 - - - - - - -
25/01:30pm 22.6 WNW 11 16 1010.4 - 0.0 - - - - - - -
25/01:00pm 22.2 NW 11 16 1011.0 - 0.0 - - - - - - -
25/12:30pm 21.5 NW 17 23 1011.3 - 0.0 - - - - - - -
25/12:00pm 21.9 NW 13 21 1011.7 - 0.0 - - - - - - -
25/11:30am 21.2 NW 11 15 1011.7 - 0.0 - - - - - - -
25/11:00am 19.4 WNW 14 21 1011.8 - 0.0 - - - - - - -
25/10:30am 18.2 WNW 14 19 1012.0 - 0.0 - - - - - - -
25/10:00am 17.2 WSW 13 19 1012.4 - 0.0 - - - - - - -
25/09:30am 17.7 W 10 14 1012.6 - 0.0 - - - - - - -
25/09:00am 16.6 WSW 13 18 1012.3 - 6.4 - - - - - - -
25/08:30am 15.9 WSW 11 20 1011.6 - 6.4 - - - - - - -
25/08:00am 16.0 WSW 11 17 1011.3 - 6.4 - - - - - - -
25/07:30am 15.8 WSW 7 12 1010.4 - 6.4 - - - - - - -
25/07:00am 16.1 W 11 19 1011.5 - 6.4 - - - - - - -
25/06:30am 16.2 W 9 14 1010.8 - 6.4 - - - - - - -
25/06:00am 16.3 WNW 12 17 1010.2 - 6.4 - - - - - - -
25/05:30am 16.2 WNW 12 20 1009.7 - 6.4 - - - - - - -
25/05:00am 16.3 WNW 14 20 1009.7 - 6.4 - - - - - - -
25/04:30am 16.3 NW 16 21 1009.2 - 6.2 - - - - - - -
25/04:00am 16.5 NW 13 20 1008.9 - 6.0 - - - - - - -
25/03:30am 16.4 WNW 17 23 1009.1 - 6.0 - - - - - - -
25/03:00am 16.6 WNW 16 22 1009.0 - 6.0 Rain - - - - - -
25/02:30am 17.4 NW 21 30 1009.4 - 5.8 - - - - - - -
25/02:24am 17.6 NW 22 30 1009.1 - 5.8 - - - - - - -
25/02:02am 17.7 NNW 19 29 1008.6 - 5.8 - - - - - - -
25/02:00am 17.7 NNW 19 27 1008.6 - 5.8 - - - - - - -
25/01:30am 17.6 NW 19 26 1008.6 - 5.8 - - - - - - -
25/01:00am 17.7 NW 17 25 1009.3 - 5.8 - - - - - - -
25/12:30am 17.9 NW 17 21 1009.1 - 5.8 - - - - - - -
25/12:00am 17.9 NW 17 23 1008.5 - 5.8 - - - - - - -
 
Date/Time
EST
Temp
°C
Wind Pressure Rain since
9am
mm
Weather Cloud Vis
km
Sea
Height
m
Swell
Dir  Spd
kts
Gust
kts
hPa Trend Height
m
Period
s
Dir
24/11:30pm 18.0 NW 16 21 1008.8 - 5.8 - - - - - - -
24/11:00pm 18.2 NW 13 19 1008.5 - 5.8 - - - - - - -
24/10:30pm 18.1 NW 13 17 1008.4 - 5.8 - - - - - - -
24/10:00pm 18.0 NW 11 15 1008.8 - 5.8 - - - - - - -

Other Formats:

Comma delimited format used in spreadsheet applications
http://www.bom.gov.au/fwo/IDQ60701/IDQ60701.94584.axf

JavaScript Object Notation format (JSON) in row-major order
http://www.bom.gov.au/fwo/IDQ60701/IDQ60701.94584.json